• Join FlightAware (Why Join?)
  • Login
  • US Flag 
10:27PM EDT


 

Airport Tracker/Info


-or-


 

Live Flight TrackerFlight Track Log ✈ ASQ6041 ✈ 01-Sep-2013 ✈ KDEN - KLNK

Flight Track Log - Related Links

Times and Time Zones

All times are in EDT time to prevent confusion due to time zone crossing. See the ASQ6041 flight status page for this flight to view local times or setup timezone preferences in your user account.

Time Position Orientation Groundspeed Altitude Reporting Facility
EDT Latitude Longitude Course Direction KTS MPH feet Rate Location/Type
12:01PM 39.9167 -104.7000 90° East 204 235 7,300  Level Denver TRACON
12:02PM 39.9500 -104.6333 57° Northeast 279 321 8,900 1,440 Climbing Denver TRACON
12:03PM 39.9500 -104.5333 90° East 303 349 10,100 540 Climbing Denver TRACON
12:04PM 39.8667 -104.1163 90° East  Level FlightAware Approximate
12:04PM 39.9500 -104.4167 90° East 356 410 10,000  Level Denver TRACON
12:04PM 39.9397 -104.3381 100° East 359 413 10,500 1,860 Climbing Denver Center
12:05PM 39.8667 -103.9784 90° East  Level FlightAware Approximate
12:05PM 39.9122 -104.2044 105° East 355 409 13,100  Level Denver Center
12:06PM 39.8667 -103.8405 90° East  Level FlightAware Approximate
12:07PM 39.9225 -104.0831 84° East 344 396 15,400  Level Denver Center
12:08PM 39.9417 -103.9558 79° East 358 412 16,800 1,200 Climbing Denver Center
12:09PM 39.9650 -103.8106 78° East 379 436 18,000 1,080 Climbing Denver Center
12:10PM 39.9869 -103.6744 78° East 383 441 19,300 1,320 Climbing Denver Center
12:11PM 40.0147 -103.5039 78° East 397 457 21,000 1,440 Climbing Denver Center
12:12PM 40.0361 -103.3594 79° East 404 465 22,300 1,260 Climbing Denver Center
12:13PM 40.0581 -103.2153 79° East 407 468 23,700 1,440 Climbing Denver Center
12:14PM 40.0853 -103.0408 78° East 409 471 25,300 1,440 Climbing Denver Center
12:15PM 40.1069 -102.8947 79° East 412 474 26,700 1,260 Climbing Denver Center
12:16PM 40.1283 -102.7464 79° East 415 478 28,000 1,080 Climbing Denver Center
12:17PM 40.1492 -102.5989 79° East 423 487 29,000 480 Climbing Denver Center
12:18PM 40.1761 -102.4189 79° East 452 520 29,000  Level Denver Center
12:19PM 40.1989 -102.2550 80° East 477 549 29,000  Level Denver Center
12:20PM 40.2206 -102.1142 79° East 491 565 29,000  Level Denver Center
12:21PM 40.2528 -101.8881 79° East 497 572 29,000  Level Denver Center
12:22PM 40.2800 -101.6894 80° East 497 572 29,000  Level Denver Center
12:23PM 40.3022 -101.5206 80° East 495 570 29,000  Level Denver Center
12:24PM 40.3300 -101.3233 79° East 495 570 29,000  Level Denver Center
12:25PM 40.3522 -101.1556 80° East 491 565 29,000  Level Denver Center
12:26PM 40.3775 -100.9575 80° East 496 571 29,000  Level Denver Center
12:27PM 40.3997 -100.7908 80° East 491 565 29,000  Level Denver Center
12:28PM 40.4250 -100.5961 80° East 490 564 29,000  Level Denver Center
12:29PM 40.4461 -100.4286 81° East 490 564 29,000  Level Denver Center
12:30PM 40.4708 -100.2342 80° East 487 560 29,000  Level Denver Center
12:31PM 40.4914 -100.0656 81° East 490 564 29,000  Level Denver Center
12:33PM 40.5158 -99.8694 81° East 489 563 29,000  Level Denver Center
12:34PM 40.5372 -99.6917 81° East 490 564 29,000  Level Denver Center
12:35PM 40.5581 -99.5150 81° East 491 565 29,000  Level Denver Center
12:36PM 40.5825 -99.3025 81° East 491 565 29,000  Level Denver Center
12:37PM 40.6031 -99.1264 81° East 491 565 29,000  Level Denver Center
12:38PM 40.6242 -98.9508 81° East 491 565 29,000 -360 Level Minneapolis Center
12:39PM 40.6428 -98.7722 82° East 495 570 28,400 -1,080 Descending Minneapolis Center
12:40PM 40.6633 -98.5933 81° East 498 573 26,900 -1,560 Descending Minneapolis Center
12:41PM 40.6864 -98.3844 82° East 487 560 25,200 -2,160 Descending Minneapolis Center
12:42PM 40.7039 -98.2228 82° East 459 528 22,500 -3,120 Descending Minneapolis Center
12:43PM 40.7194 -98.0669 82° East 438 504 18,900 -3,180 Descending Minneapolis Center
12:44PM 40.7356 -97.9178 82° East 420 483 16,000 -2,940 Descending Minneapolis Center
12:45PM 40.7500 -97.7781 82° East 395 455 12,900 -2,400 Descending Minneapolis Center
12:46PM 40.7642 -97.6428 82° East 378 435 11,100 -1,080 Descending Minneapolis Center
12:47PM 40.7536 -97.5186 96° East 369 425 11,000 -240 Descending Minneapolis Center
12:48PM 40.7708 -97.3686 81° East 389 448 10,700 -420 Descending Minneapolis Center
12:49PM 40.7850 -97.2436 81° East 337 388 10,200 -900 Descending Minneapolis Center
12:50PM 40.7914 -97.1358 85° East 278 320 9,000 -1,440 Descending Minneapolis Center
12:51PM 40.7792 -97.0297 99° East 297 342 7,400 -1,800 Descending Minneapolis Center
12:52PM 40.7672 -96.9264 99° East 267 307 5,400 -1,920 Descending Minneapolis Center
12:53PM 40.7553 -96.8286 99° East 263 303 3,600 -1,380 Descending Minneapolis Center
12:54PM 40.7592 -96.7567 86° East 158 182 2,700 -960 Descending Minneapolis Center
12:55PM 40.7947 -96.7558 North 119 137 1,700 -1,020 Descending Minneapolis Center
12:57PM 40.8500 -96.7500 66° East  Level FlightAware Approximate
01:04PM 40.8509 -96.7591 66° East  Level Estimated